Grand Ann — WDJ6890 — position and weather

sailwx.info

Track history (hours):
 
Tides and Currents Weather Stations Pressure Air Temp Water Temp Dewpoint Dewpoint Depression Visibility Wind Speed Wind Dir Waves Ship Positions

Grand Ann

Owner: Matthews Marine,Inc., Pass Christian, MS. More information available from US FCC via Universal Licensing System and Coast Guard Vessel Documentation Center.

Last reported at 2018-Apr-18 13:18 UTC. Time now 2018-Apr-20 16:13 UTC.
Position N 29°44' W 095°09'.

Length 20 m; draft 3 m.

Type: Ship. MMSI: 368001250.

Date/timePositionNaut miles runAvg speedWind from/ knotsBaromVisibWave heightAir tempDewpointWater temp
2018-Apr-18 13:18N 29°44' W 095°09'0 0.0
2018-Apr-18 08:03N 29°44' W 095°09'0 0.0
2018-Apr-18 08:00N 29°44' W 095°09'0 0.0
2018-Apr-18 07:12N 29°44' W 095°09'0 0.0
2018-Apr-18 06:53N 29°44' W 095°09'0 0.0
2018-Apr-18 05:01N 29°44' W 095°09'0 0.1
2018-Apr-18 04:55N 29°44' W 095°09'0 0.0
2018-Apr-18 04:27N 29°44' W 095°09'0 0.0
2018-Apr-18 04:00N 29°44' W 095°09'0 0.0
2018-Apr-18 03:21N 29°44' W 095°09'0 0.0
2018-Apr-18 03:00N 29°44' W 095°09'0 0.0
2018-Apr-18 02:28N 29°44' W 095°09'0 0.0
2018-Apr-18 02:00N 29°44' W 095°09'0 0.0
2018-Apr-18 01:29N 29°44' W 095°09'0 0.0
2018-Apr-18 01:00N 29°44' W 095°09'0 0.0
2018-Apr-17 22:36N 29°44' W 095°09'0 0.0
2018-Apr-17 22:22N 29°44' W 095°09'0 0.0
2018-Apr-17 21:58N 29°44' W 095°09'0 0.0
2018-Apr-17 21:26N 29°44' W 095°09'0 0.0
2018-Apr-17 20:58N 29°44' W 095°09'0 0.0
2018-Apr-17 20:23N 29°44' W 095°09'0 0.0
2018-Apr-17 19:56N 29°44' W 095°09'0 0.0
2018-Apr-17 19:28N 29°44' W 095°09'0 0.0
2018-Apr-17 18:58N 29°44' W 095°09'0 0.0
2018-Apr-17 18:30N 29°44' W 095°09'0 0.0
2018-Apr-17 18:00N 29°44' W 095°09'0 0.0
2018-Apr-17 17:30N 29°44' W 095°09'0 0.0
2018-Apr-17 16:58N 29°44' W 095°09'0 0.0
2018-Apr-17 16:25N 29°44' W 095°09'0 0.0
2018-Apr-17 15:59N 29°44' W 095°09'0 0.0
2018-Apr-17 15:04N 29°44' W 095°09'0 0.0
2018-Apr-17 15:00N 29°44' W 095°09'0 0.0
2018-Apr-17 14:13N 29°44' W 095°09'0 0.0
2018-Apr-17 14:00N 29°44' W 095°09'0 0.0
2018-Apr-17 13:30N 29°44' W 095°09'0 0.0
2018-Apr-17 12:59N 29°44' W 095°09'0 0.0
2018-Apr-17 12:29N 29°44' W 095°09'0 0.0
2018-Apr-17 11:52N 29°44' W 095°09'0 0.0
2018-Apr-17 11:28N 29°44' W 095°09'0 0.0
2018-Apr-17 11:00N 29°44' W 095°09'0 0.0
2018-Apr-17 10:27N 29°44' W 095°09'0 0.0
2018-Apr-17 10:00N 29°44' W 095°09'0 0.0
2018-Apr-17 09:29N 29°44' W 095°09'0 0.0
2018-Apr-17 09:00N 29°44' W 095°09'0 0.0
2018-Apr-17 08:27N 29°44' W 095°09'0 0.0
2018-Apr-17 08:00N 29°44' W 095°09'0 0.0
2018-Apr-17 07:30N 29°44' W 095°09'0 0.0
2018-Apr-17 07:00N 29°44' W 095°09'0 0.0
2018-Apr-17 06:30N 29°44' W 095°09'0 0.0
2018-Apr-17 05:59N 29°44' W 095°09'0 0.0
2018-Apr-17 05:27N 29°44' W 095°09'0 0.0
2018-Apr-17 04:59N 29°44' W 095°09'0 0.0
2018-Apr-17 04:26N 29°44' W 095°09'0 0.0
2018-Apr-17 03:54N 29°44' W 095°09'0 0.0
2018-Apr-17 03:30N 29°44' W 095°09'0 0.0
2018-Apr-17 02:29N 29°44' W 095°09'0 0.0
2018-Apr-17 01:48N 29°44' W 095°09'1 0.6
2018-Apr-17 00:39N 29°44' W 095°08'1 5.0
2018-Apr-17 00:30N 29°44' W 095°07'0 0.5
2018-Apr-16 23:59N 29°44' W 095°07'6 2.7
2018-Apr-16 21:44N 29°43' W 095°14'3 6.5
2018-Apr-16 21:15N 29°45' W 095°11'2 6.3
2018-Apr-16 21:00N 29°44' W 095°09'3 6.4
2018-Apr-16 20:27N 29°46' W 095°05'2 5.4
2018-Apr-16 20:00N 29°44' W 095°03'3 5.1
2018-Apr-16 19:30N 29°42' W 095°01'3 6.5
2018-Apr-16 19:00N 29°40' W 094°58'3 7.1
2018-Apr-16 18:30N 29°37' W 094°57'4 7.4
2018-Apr-16 18:00N 29°34' W 094°55'4 7.3
2018-Apr-16 17:30N 29°31' W 094°53'17 4.8
2018-Apr-16 13:52N 29°30' W 094°33'6 6.1
2018-Apr-16 12:49N 29°34' W 094°26'2 5.7
2018-Apr-16 12:30N 29°35' W 094°25'3 5.7
2018-Apr-16 12:00N 29°36' W 094°22'3 6.8
2018-Apr-16 11:30N 29°38' W 094°19'4 7.1
2018-Apr-16 11:00N 29°40' W 094°15'4 7.3
2018-Apr-16 10:30N 29°41' W 094°11'4 7.2
2018-Apr-16 10:00N 29°43' W 094°07'4 7.4
2018-Apr-16 09:30N 29°45' W 094°04'3 7.0
2018-Apr-16 09:00N 29°47' W 094°01'4 7.2
2018-Apr-16 08:30N 29°49' W 093°58'4 7.4
2018-Apr-16 08:00N 29°53' W 093°55'4 8.0
2018-Apr-16 07:31N 29°56' W 093°53'4 7.0
2018-Apr-16 07:00N 29°59' W 093°50'4 8.1
2018-Apr-16 06:30N 30°00' W 093°46'4 7.9
2018-Apr-16 06:00N 30°03' W 093°43'3 7.0
2018-Apr-16 05:30N 30°04' W 093°39'3 6.5
2018-Apr-16 05:00N 30°04' W 093°35'3 6.0
2018-Apr-16 04:30N 30°04' W 093°32'3 6.0
2018-Apr-16 04:00N 30°04' W 093°28'3 6.0
2018-Apr-16 03:30N 30°04' W 093°25'3 5.3
2018-Apr-16 03:00N 30°04' W 093°22'2 4.2
2018-Apr-16 02:30N 30°05' W 093°20'2 4.0
2018-Apr-16 02:00N 30°05' W 093°18'2 4.9
2018-Apr-16 01:30N 30°03' W 093°16'3 6.2
2018-Apr-16 01:00N 30°01' W 093°14'3 6.2
2018-Apr-16 00:30N 29°58' W 093°12'3 6.4
2018-Apr-16 00:00N 29°56' W 093°09'4 6.1
2018-Apr-15 23:24N 29°56' W 093°05'0 0.5
2018-Apr-15 22:54N 29°56' W 093°04'0 0.6
2018-Apr-15 22:27N 29°56' W 093°05'3 6.4
2018-Apr-15 21:58N 29°56' W 093°08'3 5.7
2018-Apr-15 21:30N 29°58' W 093°11'3 6.2
2018-Apr-15 21:00N 29°60' W 093°13'3 5.7
2018-Apr-15 20:30N 30°02' W 093°15'3 5.9
2018-Apr-15 20:00N 30°05' W 093°17'1 2.9
2018-Apr-15 19:30N 30°06' W 093°18'1 1.5
2018-Apr-15 19:00N 30°06' W 093°19'3 6.9
2018-Apr-15 18:30N 30°04' W 093°21'4 8.0
2018-Apr-15 18:00N 30°04' W 093°26'4 7.8
2018-Apr-15 17:30N 30°04' W 093°31'4 7.7
2018-Apr-15 17:00N 30°04' W 093°35'6 7.1
2018-Apr-15 16:11N 30°04' W 093°42'1 6.4
2018-Apr-15 15:59N 30°03' W 093°43'3 5.4
2018-Apr-15 15:31N 30°01' W 093°45'3 5.3
2018-Apr-15 15:00N 29°59' W 093°47'3 5.9
2018-Apr-15 14:30N 29°58' W 093°51'3 5.5
2018-Apr-15 14:00N 29°56' W 093°52'0 0.5
2018-Apr-15 13:30N 29°56' W 093°52'2 3.5
2018-Apr-15 13:01N 29°54' W 093°54'3 5.1
2018-Apr-15 12:30N 29°52' W 093°56'3 5.7
2018-Apr-15 12:00N 29°50' W 093°57'3 5.9
2018-Apr-15 11:30N 29°48' W 094°00'3 6.2
2018-Apr-15 11:00N 29°46' W 094°03'3 6.0
2018-Apr-15 10:31N 29°44' W 094°05'3 6.0
2018-Apr-15 10:00N 29°42' W 094°08'3 5.7
2018-Apr-15 09:30N 29°41' W 094°11'3 6.2
2018-Apr-15 09:01N 29°40' W 094°14'3 6.0
2018-Apr-15 08:31N 29°39' W 094°17'3 6.0
2018-Apr-15 08:00N 29°37' W 094°20'3 5.8
2018-Apr-15 07:30N 29°36' W 094°23'2 4.4
2018-Apr-15 06:59N 29°34' W 094°25'3 5.6
2018-Apr-15 06:30N 29°33' W 094°28'3 5.9
2018-Apr-15 06:00N 29°31' W 094°30'2 3.8
2018-Apr-15 05:29N 29°30' W 094°33'2 4.7
2018-Apr-15 05:00N 29°29' W 094°35'15 3.9
2018-Apr-15 01:17N 29°29' W 094°52'2 6.7
2018-Apr-15 00:58N 29°31' W 094°53'3 6.3
2018-Apr-15 00:30N 29°33' W 094°55'3 6.5
2018-Apr-15 00:00N 29°36' W 094°57'3 6.6
2018-Apr-14 23:30N 29°39' W 094°58'3 6.4
2018-Apr-14 23:00N 29°42' W 095°00'3 5.6
2018-Apr-14 22:30N 29°44' W 095°03'3 6.2
2018-Apr-14 22:00N 29°46' W 095°05'0 0.8
2018-Apr-14 21:30N 29°47' W 095°05'0 0.0
2018-Apr-14 20:44N 29°47' W 095°05'0 0.0
2018-Apr-14 20:08N 29°47' W 095°05'0 0.0
2018-Apr-14 20:00N 29°47' W 095°05'0 0.0
2018-Apr-14 19:18N 29°47' W 095°05'0 0.0
2018-Apr-14 18:57N 29°47' W 095°05'0 0.0
2018-Apr-14 18:30N 29°47' W 095°05'0 0.0
2018-Apr-14 17:23N 29°47' W 095°05'0 0.0
2018-Apr-14 17:00N 29°47' W 095°05'0 0.0
2018-Apr-14 16:29N 29°47' W 095°05'0 0.0
2018-Apr-14 16:00N 29°47' W 095°05'0 0.0
2018-Apr-14 15:30N 29°47' W 095°05'0 0.0
2018-Apr-14 15:00N 29°47' W 095°05'0 0.0
2018-Apr-14 14:30N 29°47' W 095°05'0 0.0
2018-Apr-14 14:00N 29°47' W 095°05'0 0.0
2018-Apr-14 13:29N 29°47' W 095°05'0 0.0
2018-Apr-14 13:00N 29°47' W 095°05'0 0.0
2018-Apr-14 12:22N 29°47' W 095°05'0 0.0
2018-Apr-14 11:58N 29°47' W 095°05'0 0.0
2018-Apr-14 11:18N 29°47' W 095°05'0 0.0
2018-Apr-14 10:55N 29°47' W 095°05'0 0.0
2018-Apr-14 10:24N 29°47' W 095°05'0 0.0
2018-Apr-14 09:58N 29°47' W 095°05'0 0.0
2018-Apr-14 09:26N 29°47' W 095°05'0 0.0
2018-Apr-14 08:54N 29°47' W 095°05'0 0.0
2018-Apr-14 07:14N 29°47' W 095°05'5 0.7
2018-Apr-14 00:48N 29°43' W 095°01'2 5.4
2018-Apr-14 00:30N 29°42' W 094°60'4 7.4
2018-Apr-14 00:00N 29°39' W 094°58'4 7.3
2018-Apr-13 23:30N 29°35' W 094°56'4 7.6
2018-Apr-13 23:00N 29°32' W 094°54'26 4.6
2018-Apr-13 17:20N 29°36' W 094°24'1 3.2
2018-Apr-13 16:53N 29°36' W 094°23'2 5.6
2018-Apr-13 16:27N 29°37' W 094°20'4 6.2
2018-Apr-13 15:51N 29°39' W 094°17'2 6.1
2018-Apr-13 15:30N 29°40' W 094°14'3 6.5
2018-Apr-13 15:01N 29°41' W 094°11'3 6.2
2018-Apr-13 14:30N 29°42' W 094°08'3 6.4
2018-Apr-13 14:01N 29°44' W 094°05'3 6.5
2018-Apr-13 13:30N 29°47' W 094°02'3 6.5
2018-Apr-13 13:00N 29°49' W 093°60'2 4.2
2018-Apr-13 12:30N 29°50' W 093°57'4 7.0
2018-Apr-13 12:00N 29°53' W 093°55'3 6.9
2018-Apr-13 11:30N 29°55' W 093°53'3 6.3
2018-Apr-13 11:00N 29°58' W 093°51'4 6.9
2018-Apr-13 10:30N 29°59' W 093°47'3 6.9
2018-Apr-13 10:01N 30°02' W 093°44'3 6.4
2018-Apr-13 09:29N 30°04' W 093°41'4 6.1
2018-Apr-13 08:50N 30°04' W 093°37'2 5.5
2018-Apr-13 08:30N 30°04' W 093°35'3 5.5
2018-Apr-13 08:00N 30°04' W 093°31'3 6.0
2018-Apr-13 07:30N 30°04' W 093°28'3 6.0
2018-Apr-13 07:00N 30°04' W 093°24'3 5.5
2018-Apr-13 06:30N 30°04' W 093°21'2 3.3
2018-Apr-13 06:00N 30°05' W 093°20'2 4.1
2018-Apr-13 05:30N 30°05' W 093°18'1 2.1
2018-Apr-13 05:00N 30°05' W 093°17'3 5.3
2018-Apr-13 04:30N 30°02' W 093°15'3 5.4
2018-Apr-13 04:00N 30°00' W 093°14'2 4.2
2018-Apr-13 03:30N 29°59' W 093°12'3 6.1
2018-Apr-13 03:00N 29°56' W 093°10'5 4.5
2018-Apr-13 02:01N 29°56' W 093°04'0 0.7
2018-Apr-13 01:58N 29°56' W 093°04'0 0.3
2018-Apr-13 01:08N 29°56' W 093°05'2 6.6
2018-Apr-13 00:49N 29°56' W 093°07'2 6.8
2018-Apr-13 00:30N 29°56' W 093°10'3 6.3
2018-Apr-13 00:00N 29°59' W 093°12'3 5.9
2018-Apr-12 23:30N 30°01' W 093°14'3 5.6
2018-Apr-12 23:00N 30°03' W 093°16'3 5.1
2018-Apr-12 22:30N 30°05' W 093°18'1 1.5
2018-Apr-12 22:00N 30°06' W 093°18'0 0.0
2018-Apr-12 21:28N 30°06' W 093°18'1 1.2
2018-Apr-12 20:59N 30°06' W 093°19'3 6.1
2018-Apr-12 20:30N 30°04' W 093°21'3 6.5
2018-Apr-12 20:00N 30°04' W 093°25'4 7.4
2018-Apr-12 19:30N 30°04' W 093°29'4 7.4
2018-Apr-12 18:59N 30°04' W 093°33'4 7.3
2018-Apr-12 18:27N 30°04' W 093°38'3 7.2
2018-Apr-12 17:59N 30°03' W 093°42'3 5.8
2018-Apr-12 17:31N 30°02' W 093°44'3 5.8
2018-Apr-12 17:00N 29°60' W 093°47'3 6.1
2018-Apr-12 16:30N 29°59' W 093°50'3 6.2
2018-Apr-12 16:00N 29°56' W 093°52'3 6.3
2018-Apr-12 15:30N 29°54' W 093°54'3 6.1
2018-Apr-12 15:00N 29°51' W 093°57'3 5.8
2018-Apr-12 14:30N 29°49' W 093°59'3 6.4
2018-Apr-12 14:00N 29°47' W 094°01'3 6.4
2018-Apr-12 13:30N 29°45' W 094°04'3 6.3
2018-Apr-12 13:01N 29°43' W 094°07'3 6.0
2018-Apr-12 12:30N 29°41' W 094°10'3 6.0
2018-Apr-12 12:00N 29°40' W 094°13'3 6.1
2018-Apr-12 11:31N 29°39' W 094°16'3 6.0
2018-Apr-12 11:00N 29°37' W 094°19'3 6.0
2018-Apr-12 10:30N 29°36' W 094°22'3 4.7
2018-Apr-12 09:57N 29°34' W 094°25'3 5.7
2018-Apr-12 09:27N 29°33' W 094°28'4 6.6
2018-Apr-12 08:53N 29°31' W 094°31'1 1.6
2018-Apr-12 08:30N 29°31' W 094°32'0 0.0
2018-Apr-12 08:00N 29°31' W 094°32'0 0.0
2018-Apr-12 07:30N 29°31' W 094°32'0 0.1
2018-Apr-12 07:01N 29°31' W 094°32'2 4.2
2018-Apr-12 06:30N 29°30' W 094°34'4 6.6
2018-Apr-12 05:58N 29°28' W 094°38'3 6.5
2018-Apr-12 05:30N 29°27' W 094°41'3 6.8
2018-Apr-12 05:00N 29°25' W 094°44'3 6.5
2018-Apr-12 04:30N 29°23' W 094°47'2 4.7
2018-Apr-12 04:00N 29°24' W 094°49'4 7.3
2018-Apr-12 03:30N 29°27' W 094°51'4 7.5
2018-Apr-12 03:00N 29°30' W 094°53'4 7.4
2018-Apr-12 02:30N 29°33' W 094°55'4 7.2
2018-Apr-12 02:00N 29°36' W 094°57'4 7.4
2018-Apr-12 01:30N 29°40' W 094°59'4 6.7
2018-Apr-12 00:55N 29°43' W 095°01'3 6.5
2018-Apr-12 00:30N 29°45' W 095°04'2 3.5
2018-Apr-11 23:56N 29°47' W 095°05'0 0.3
2018-Apr-11 23:27N 29°46' W 095°05'0 0.0
2018-Apr-11 22:09N 29°46' W 095°05'0 0.0
2018-Apr-11 21:15N 29°46' W 095°05'0 0.0
2018-Apr-11 20:55N 29°46' W 095°05'0 0.0
2018-Apr-11 18:19N 29°46' W 095°05'0 0.0
2018-Apr-11 17:55N 29°46' W 095°05'0 0.0
2018-Apr-11 17:03N 29°46' W 095°05'0 0.0
2018-Apr-11 16:54N 29°46' W 095°05'0 0.0
2018-Apr-11 15:32N 29°46' W 095°05'0 0.0
2018-Apr-11 15:26N 29°46' W 095°05'0 0.0
2018-Apr-11 15:00N 29°46' W 095°05'0 0.0
2018-Apr-11 14:27N 29°46' W 095°05'0 0.0
2018-Apr-11 13:51N 29°46' W 095°05'0 0.0
2018-Apr-11 12:35N 29°46' W 095°05'0 0.0
2018-Apr-11 11:34N 29°46' W 095°05'0 0.0
2018-Apr-11 11:20N 29°46' W 095°05'0 0.0
2018-Apr-11 11:00N 29°46' W 095°05'0 0.0
2018-Apr-10 21:43N 29°46' W 095°05'0 0.0
2018-Apr-10 21:30N 29°46' W 095°05'0 0.7
2018-Apr-10 20:56N 29°47' W 095°05'0 1.0
2018-Apr-10 20:30N 29°46' W 095°05'2 4.3
2018-Apr-10 19:59N 29°45' W 095°06'4 5.2
2018-Apr-10 19:17N 29°45' W 095°10'4 0.2
2018-Apr-10 02:20N 29°45' W 095°06'2 1.4
2018-Apr-10 00:43N 29°46' W 095°05'1 3.0
2018-Apr-10 00:29N 29°46' W 095°05'3 6.3
2018-Apr-09 23:59N 29°44' W 095°08'4 0.1
2018-Apr-08 22:41N 29°44' W 095°12'2 4.9
2018-Apr-08 22:12N 29°44' W 095°09'2 5.2
2018-Apr-08 21:50N 29°44' W 095°07'2 5.5
2018-Apr-08 21:30N 29°45' W 095°06'2 3.8
2018-Apr-08 20:56N 29°44' W 095°03'2 5.1
2018-Apr-08 20:29N 29°43' W 095°01'2 5.0
2018-Apr-08 20:00N 29°41' W 094°59'3 6.0
2018-Apr-08 19:30N 29°39' W 094°58'3 6.0
2018-Apr-08 19:00N 29°36' W 094°57'3 6.2
2018-Apr-08 18:30N 29°33' W 094°55'3 6.4
2018-Apr-08 18:00N 29°31' W 094°53'  
Track history (hours):
 
Tides and Currents Weather Stations Pressure Air Temp Water Temp Dewpoint Dewpoint Depression Visibility Wind Speed Wind Dir Waves Ship Positions

Grand Ann

Owner: Matthews Marine,Inc., Pass Christian, MS. More information available from US FCC via Universal Licensing System and Coast Guard Vessel Documentation Center.

Last reported at 2018-Apr-18 13:18 UTC. Time now 2018-Apr-20 16:13 UTC.
Position N 29°44' W 095°09'.

Length 20 m; draft 3 m.

Type: Ship. MMSI: 368001250.

Date/timePositionNaut miles runAvg speedWind from/ knotsBaromVisibWave heightAir tempDewpointWater temp
2018-Apr-18 13:18N 29°44' W 095°09'0 0.0
2018-Apr-18 08:03N 29°44' W 095°09'0 0.0
2018-Apr-18 08:00N 29°44' W 095°09'0 0.0
2018-Apr-18 07:12N 29°44' W 095°09'0 0.0
2018-Apr-18 06:53N 29°44' W 095°09'0 0.0
2018-Apr-18 05:01N 29°44' W 095°09'0 0.1
2018-Apr-18 04:55N 29°44' W 095°09'0 0.0
2018-Apr-18 04:27N 29°44' W 095°09'0 0.0
2018-Apr-18 04:00N 29°44' W 095°09'0 0.0
2018-Apr-18 03:21N 29°44' W 095°09'0 0.0
2018-Apr-18 03:00N 29°44' W 095°09'0 0.0
2018-Apr-18 02:28N 29°44' W 095°09'0 0.0
2018-Apr-18 02:00N 29°44' W 095°09'0 0.0
2018-Apr-18 01:29N 29°44' W 095°09'0 0.0
2018-Apr-18 01:00N 29°44' W 095°09'0 0.0
2018-Apr-17 22:36N 29°44' W 095°09'0 0.0
2018-Apr-17 22:22N 29°44' W 095°09'0 0.0
2018-Apr-17 21:58N 29°44' W 095°09'0 0.0
2018-Apr-17 21:26N 29°44' W 095°09'0 0.0
2018-Apr-17 20:58N 29°44' W 095°09'0 0.0
2018-Apr-17 20:23N 29°44' W 095°09'0 0.0
2018-Apr-17 19:56N 29°44' W 095°09'0 0.0
2018-Apr-17 19:28N 29°44' W 095°09'0 0.0
2018-Apr-17 18:58N 29°44' W 095°09'0 0.0
2018-Apr-17 18:30N 29°44' W 095°09'0 0.0
2018-Apr-17 18:00N 29°44' W 095°09'0 0.0
2018-Apr-17 17:30N 29°44' W 095°09'0 0.0
2018-Apr-17 16:58N 29°44' W 095°09'0 0.0
2018-Apr-17 16:25N 29°44' W 095°09'0 0.0
2018-Apr-17 15:59N 29°44' W 095°09'0 0.0
2018-Apr-17 15:04N 29°44' W 095°09'0 0.0
2018-Apr-17 15:00N 29°44' W 095°09'0 0.0
2018-Apr-17 14:13N 29°44' W 095°09'0 0.0
2018-Apr-17 14:00N 29°44' W 095°09'0 0.0
2018-Apr-17 13:30N 29°44' W 095°09'0 0.0
2018-Apr-17 12:59N 29°44' W 095°09'0 0.0
2018-Apr-17 12:29N 29°44' W 095°09'0 0.0
2018-Apr-17 11:52N 29°44' W 095°09'0 0.0
2018-Apr-17 11:28N 29°44' W 095°09'0 0.0
2018-Apr-17 11:00N 29°44' W 095°09'0 0.0
2018-Apr-17 10:27N 29°44' W 095°09'0 0.0
2018-Apr-17 10:00N 29°44' W 095°09'0 0.0
2018-Apr-17 09:29N 29°44' W 095°09'0 0.0
2018-Apr-17 09:00N 29°44' W 095°09'0 0.0
2018-Apr-17 08:27N 29°44' W 095°09'0 0.0
2018-Apr-17 08:00N 29°44' W 095°09'0 0.0
2018-Apr-17 07:30N 29°44' W 095°09'0 0.0
2018-Apr-17 07:00N 29°44' W 095°09'0 0.0
2018-Apr-17 06:30N 29°44' W 095°09'0 0.0
2018-Apr-17 05:59N 29°44' W 095°09'0 0.0
2018-Apr-17 05:27N 29°44' W 095°09'0 0.0
2018-Apr-17 04:59N 29°44' W 095°09'0 0.0
2018-Apr-17 04:26N 29°44' W 095°09'0 0.0
2018-Apr-17 03:54N 29°44' W 095°09'0 0.0
2018-Apr-17 03:30N 29°44' W 095°09'0 0.0
2018-Apr-17 02:29N 29°44' W 095°09'0 0.0
2018-Apr-17 01:48N 29°44' W 095°09'1 0.6
2018-Apr-17 00:39N 29°44' W 095°08'1 5.0
2018-Apr-17 00:30N 29°44' W 095°07'0 0.5
2018-Apr-16 23:59N 29°44' W 095°07'6 2.7
2018-Apr-16 21:44N 29°43' W 095°14'3 6.5
2018-Apr-16 21:15N 29°45' W 095°11'2 6.3
2018-Apr-16 21:00N 29°44' W 095°09'3 6.4
2018-Apr-16 20:27N 29°46' W 095°05'2 5.4
2018-Apr-16 20:00N 29°44' W 095°03'3 5.1
2018-Apr-16 19:30N 29°42' W 095°01'3 6.5
2018-Apr-16 19:00N 29°40' W 094°58'3 7.1
2018-Apr-16 18:30N 29°37' W 094°57'4 7.4
2018-Apr-16 18:00N 29°34' W 094°55'4 7.3
2018-Apr-16 17:30N 29°31' W 094°53'17 4.8
2018-Apr-16 13:52N 29°30' W 094°33'6 6.1
2018-Apr-16 12:49N 29°34' W 094°26'2 5.7
2018-Apr-16 12:30N 29°35' W 094°25'3 5.7
2018-Apr-16 12:00N 29°36' W 094°22'3 6.8
2018-Apr-16 11:30N 29°38' W 094°19'4 7.1
2018-Apr-16 11:00N 29°40' W 094°15'4 7.3
2018-Apr-16 10:30N 29°41' W 094°11'4 7.2
2018-Apr-16 10:00N 29°43' W 094°07'4 7.4
2018-Apr-16 09:30N 29°45' W 094°04'3 7.0
2018-Apr-16 09:00N 29°47' W 094°01'4 7.2
2018-Apr-16 08:30N 29°49' W 093°58'4 7.4
2018-Apr-16 08:00N 29°53' W 093°55'4 8.0
2018-Apr-16 07:31N 29°56' W 093°53'4 7.0
2018-Apr-16 07:00N 29°59' W 093°50'4 8.1
2018-Apr-16 06:30N 30°00' W 093°46'4 7.9
2018-Apr-16 06:00N 30°03' W 093°43'3 7.0
2018-Apr-16 05:30N 30°04' W 093°39'3 6.5
2018-Apr-16 05:00N 30°04' W 093°35'3 6.0
2018-Apr-16 04:30N 30°04' W 093°32'3 6.0
2018-Apr-16 04:00N 30°04' W 093°28'3 6.0
2018-Apr-16 03:30N 30°04' W 093°25'3 5.3
2018-Apr-16 03:00N 30°04' W 093°22'2 4.2
2018-Apr-16 02:30N 30°05' W 093°20'2 4.0
2018-Apr-16 02:00N 30°05' W 093°18'2 4.9
2018-Apr-16 01:30N 30°03' W 093°16'3 6.2
2018-Apr-16 01:00N 30°01' W 093°14'3 6.2
2018-Apr-16 00:30N 29°58' W 093°12'3 6.4
2018-Apr-16 00:00N 29°56' W 093°09'4 6.1
2018-Apr-15 23:24N 29°56' W 093°05'0 0.5
2018-Apr-15 22:54N 29°56' W 093°04'0 0.6
2018-Apr-15 22:27N 29°56' W 093°05'3 6.4
2018-Apr-15 21:58N 29°56' W 093°08'3 5.7
2018-Apr-15 21:30N 29°58' W 093°11'3 6.2
2018-Apr-15 21:00N 29°60' W 093°13'3 5.7
2018-Apr-15 20:30N 30°02' W 093°15'3 5.9
2018-Apr-15 20:00N 30°05' W 093°17'1 2.9
2018-Apr-15 19:30N 30°06' W 093°18'1 1.5
2018-Apr-15 19:00N 30°06' W 093°19'3 6.9
2018-Apr-15 18:30N 30°04' W 093°21'4 8.0
2018-Apr-15 18:00N 30°04' W 093°26'4 7.8
2018-Apr-15 17:30N 30°04' W 093°31'4 7.7
2018-Apr-15 17:00N 30°04' W 093°35'6 7.1
2018-Apr-15 16:11N 30°04' W 093°42'1 6.4
2018-Apr-15 15:59N 30°03' W 093°43'3 5.4
2018-Apr-15 15:31N 30°01' W 093°45'3 5.3
2018-Apr-15 15:00N 29°59' W 093°47'3 5.9
2018-Apr-15 14:30N 29°58' W 093°51'3 5.5
2018-Apr-15 14:00N 29°56' W 093°52'0 0.5
2018-Apr-15 13:30N 29°56' W 093°52'2 3.5
2018-Apr-15 13:01N 29°54' W 093°54'3 5.1
2018-Apr-15 12:30N 29°52' W 093°56'3 5.7
2018-Apr-15 12:00N 29°50' W 093°57'3 5.9
2018-Apr-15 11:30N 29°48' W 094°00'3 6.2
2018-Apr-15 11:00N 29°46' W 094°03'3 6.0
2018-Apr-15 10:31N 29°44' W 094°05'3 6.0
2018-Apr-15 10:00N 29°42' W 094°08'3 5.7
2018-Apr-15 09:30N 29°41' W 094°11'3 6.2
2018-Apr-15 09:01N 29°40' W 094°14'3 6.0
2018-Apr-15 08:31N 29°39' W 094°17'3 6.0
2018-Apr-15 08:00N 29°37' W 094°20'3 5.8
2018-Apr-15 07:30N 29°36' W 094°23'2 4.4
2018-Apr-15 06:59N 29°34' W 094°25'3 5.6
2018-Apr-15 06:30N 29°33' W 094°28'3 5.9
2018-Apr-15 06:00N 29°31' W 094°30'2 3.8
2018-Apr-15 05:29N 29°30' W 094°33'2 4.7
2018-Apr-15 05:00N 29°29' W 094°35'15 3.9
2018-Apr-15 01:17N 29°29' W 094°52'2 6.7
2018-Apr-15 00:58N 29°31' W 094°53'3 6.3
2018-Apr-15 00:30N 29°33' W 094°55'3 6.5
2018-Apr-15 00:00N 29°36' W 094°57'3 6.6
2018-Apr-14 23:30N 29°39' W 094°58'3 6.4
2018-Apr-14 23:00N 29°42' W 095°00'3 5.6
2018-Apr-14 22:30N 29°44' W 095°03'3 6.2
2018-Apr-14 22:00N 29°46' W 095°05'0 0.8
2018-Apr-14 21:30N 29°47' W 095°05'0 0.0
2018-Apr-14 20:44N 29°47' W 095°05'0 0.0
2018-Apr-14 20:08N 29°47' W 095°05'0 0.0
2018-Apr-14 20:00N 29°47' W 095°05'0 0.0
2018-Apr-14 19:18N 29°47' W 095°05'0 0.0
2018-Apr-14 18:57N 29°47' W 095°05'0 0.0
2018-Apr-14 18:30N 29°47' W 095°05'0 0.0
2018-Apr-14 17:23N 29°47' W 095°05'0 0.0
2018-Apr-14 17:00N 29°47' W 095°05'0 0.0
2018-Apr-14 16:29N 29°47' W 095°05'0 0.0
2018-Apr-14 16:00N 29°47' W 095°05'0 0.0
2018-Apr-14 15:30N 29°47' W 095°05'0 0.0
2018-Apr-14 15:00N 29°47' W 095°05'0 0.0
2018-Apr-14 14:30N 29°47' W 095°05'0 0.0
2018-Apr-14 14:00N 29°47' W 095°05'0 0.0
2018-Apr-14 13:29N 29°47' W 095°05'0 0.0
2018-Apr-14 13:00N 29°47' W 095°05'0 0.0
2018-Apr-14 12:22N 29°47' W 095°05'0 0.0
2018-Apr-14 11:58N 29°47' W 095°05'0 0.0
2018-Apr-14 11:18N 29°47' W 095°05'0 0.0
2018-Apr-14 10:55N 29°47' W 095°05'0 0.0
2018-Apr-14 10:24N 29°47' W 095°05'0 0.0
2018-Apr-14 09:58N 29°47' W 095°05'0 0.0
2018-Apr-14 09:26N 29°47' W 095°05'0 0.0
2018-Apr-14 08:54N 29°47' W 095°05'0 0.0
2018-Apr-14 07:14N 29°47' W 095°05'5 0.7
2018-Apr-14 00:48N 29°43' W 095°01'2 5.4
2018-Apr-14 00:30N 29°42' W 094°60'4 7.4
2018-Apr-14 00:00N 29°39' W 094°58'4 7.3
2018-Apr-13 23:30N 29°35' W 094°56'4 7.6
2018-Apr-13 23:00N 29°32' W 094°54'26 4.6
2018-Apr-13 17:20N 29°36' W 094°24'1 3.2
2018-Apr-13 16:53N 29°36' W 094°23'2 5.6
2018-Apr-13 16:27N 29°37' W 094°20'4 6.2
2018-Apr-13 15:51N 29°39' W 094°17'2 6.1
2018-Apr-13 15:30N 29°40' W 094°14'3 6.5
2018-Apr-13 15:01N 29°41' W 094°11'3 6.2
2018-Apr-13 14:30N 29°42' W 094°08'3 6.4
2018-Apr-13 14:01N 29°44' W 094°05'3 6.5
2018-Apr-13 13:30N 29°47' W 094°02'3 6.5
2018-Apr-13 13:00N 29°49' W 093°60'2 4.2
2018-Apr-13 12:30N 29°50' W 093°57'4 7.0
2018-Apr-13 12:00N 29°53' W 093°55'3 6.9
2018-Apr-13 11:30N 29°55' W 093°53'3 6.3
2018-Apr-13 11:00N 29°58' W 093°51'4 6.9
2018-Apr-13 10:30N 29°59' W 093°47'3 6.9
2018-Apr-13 10:01N 30°02' W 093°44'3 6.4
2018-Apr-13 09:29N 30°04' W 093°41'4 6.1
2018-Apr-13 08:50N 30°04' W 093°37'2 5.5
2018-Apr-13 08:30N 30°04' W 093°35'3 5.5
2018-Apr-13 08:00N 30°04' W 093°31'3 6.0
2018-Apr-13 07:30N 30°04' W 093°28'3 6.0
2018-Apr-13 07:00N 30°04' W 093°24'3 5.5
2018-Apr-13 06:30N 30°04' W 093°21'2 3.3
2018-Apr-13 06:00N 30°05' W 093°20'2 4.1
2018-Apr-13 05:30N 30°05' W 093°18'1 2.1
2018-Apr-13 05:00N 30°05' W 093°17'3 5.3
2018-Apr-13 04:30N 30°02' W 093°15'3 5.4
2018-Apr-13 04:00N 30°00' W 093°14'2 4.2
2018-Apr-13 03:30N 29°59' W 093°12'3 6.1
2018-Apr-13 03:00N 29°56' W 093°10'5 4.5
2018-Apr-13 02:01N 29°56' W 093°04'0 0.7
2018-Apr-13 01:58N 29°56' W 093°04'0 0.3
2018-Apr-13 01:08N 29°56' W 093°05'2 6.6
2018-Apr-13 00:49N 29°56' W 093°07'2 6.8
2018-Apr-13 00:30N 29°56' W 093°10'3 6.3
2018-Apr-13 00:00N 29°59' W 093°12'3 5.9
2018-Apr-12 23:30N 30°01' W 093°14'3 5.6
2018-Apr-12 23:00N 30°03' W 093°16'3 5.1
2018-Apr-12 22:30N 30°05' W 093°18'1 1.5
2018-Apr-12 22:00N 30°06' W 093°18'0 0.0
2018-Apr-12 21:28N 30°06' W 093°18'1 1.2
2018-Apr-12 20:59N 30°06' W 093°19'3 6.1
2018-Apr-12 20:30N 30°04' W 093°21'3 6.5
2018-Apr-12 20:00N 30°04' W 093°25'4 7.4
2018-Apr-12 19:30N 30°04' W 093°29'4 7.4
2018-Apr-12 18:59N 30°04' W 093°33'4 7.3
2018-Apr-12 18:27N 30°04' W 093°38'3 7.2
2018-Apr-12 17:59N 30°03' W 093°42'3 5.8
2018-Apr-12 17:31N 30°02' W 093°44'3 5.8
2018-Apr-12 17:00N 29°60' W 093°47'3 6.1
2018-Apr-12 16:30N 29°59' W 093°50'3 6.2
2018-Apr-12 16:00N 29°56' W 093°52'3 6.3
2018-Apr-12 15:30N 29°54' W 093°54'3 6.1
2018-Apr-12 15:00N 29°51' W 093°57'3 5.8
2018-Apr-12 14:30N 29°49' W 093°59'3 6.4
2018-Apr-12 14:00N 29°47' W 094°01'3 6.4
2018-Apr-12 13:30N 29°45' W 094°04'3 6.3
2018-Apr-12 13:01N 29°43' W 094°07'3 6.0
2018-Apr-12 12:30N 29°41' W 094°10'3 6.0
2018-Apr-12 12:00N 29°40' W 094°13'3 6.1
2018-Apr-12 11:31N 29°39' W 094°16'3 6.0
2018-Apr-12 11:00N 29°37' W 094°19'3 6.0
2018-Apr-12 10:30N 29°36' W 094°22'3 4.7
2018-Apr-12 09:57N 29°34' W 094°25'3 5.7
2018-Apr-12 09:27N 29°33' W 094°28'4 6.6
2018-Apr-12 08:53N 29°31' W 094°31'1 1.6
2018-Apr-12 08:30N 29°31' W 094°32'0 0.0
2018-Apr-12 08:00N 29°31' W 094°32'0 0.0
2018-Apr-12 07:30N 29°31' W 094°32'0 0.1
2018-Apr-12 07:01N 29°31' W 094°32'2 4.2
2018-Apr-12 06:30N 29°30' W 094°34'4 6.6
2018-Apr-12 05:58N 29°28' W 094°38'3 6.5
2018-Apr-12 05:30N 29°27' W 094°41'3 6.8
2018-Apr-12 05:00N 29°25' W 094°44'3 6.5
2018-Apr-12 04:30N 29°23' W 094°47'2 4.7
2018-Apr-12 04:00N 29°24' W 094°49'4 7.3
2018-Apr-12 03:30N 29°27' W 094°51'4 7.5
2018-Apr-12 03:00N 29°30' W 094°53'4 7.4
2018-Apr-12 02:30N 29°33' W 094°55'4 7.2
2018-Apr-12 02:00N 29°36' W 094°57'4 7.4
2018-Apr-12 01:30N 29°40' W 094°59'4 6.7
2018-Apr-12 00:55N 29°43' W 095°01'3 6.5
2018-Apr-12 00:30N 29°45' W 095°04'2 3.5
2018-Apr-11 23:56N 29°47' W 095°05'0 0.3
2018-Apr-11 23:27N 29°46' W 095°05'0 0.0
2018-Apr-11 22:09N 29°46' W 095°05'0 0.0
2018-Apr-11 21:15N 29°46' W 095°05'0 0.0
2018-Apr-11 20:55N 29°46' W 095°05'0 0.0
2018-Apr-11 18:19N 29°46' W 095°05'0 0.0
2018-Apr-11 17:55N 29°46' W 095°05'0 0.0
2018-Apr-11 17:03N 29°46' W 095°05'0 0.0
2018-Apr-11 16:54N 29°46' W 095°05'0 0.0
2018-Apr-11 15:32N 29°46' W 095°05'0 0.0
2018-Apr-11 15:26N 29°46' W 095°05'0 0.0
2018-Apr-11 15:00N 29°46' W 095°05'0 0.0
2018-Apr-11 14:27N 29°46' W 095°05'0 0.0
2018-Apr-11 13:51N 29°46' W 095°05'0 0.0
2018-Apr-11 12:35N 29°46' W 095°05'0 0.0
2018-Apr-11 11:34N 29°46' W 095°05'0 0.0
2018-Apr-11 11:20N 29°46' W 095°05'0 0.0
2018-Apr-11 11:00N 29°46' W 095°05'0 0.0
2018-Apr-10 21:43N 29°46' W 095°05'0 0.0
2018-Apr-10 21:30N 29°46' W 095°05'0 0.7
2018-Apr-10 20:56N 29°47' W 095°05'0 1.0
2018-Apr-10 20:30N 29°46' W 095°05'2 4.3
2018-Apr-10 19:59N 29°45' W 095°06'4 5.2
2018-Apr-10 19:17N 29°45' W 095°10'4 0.2
2018-Apr-10 02:20N 29°45' W 095°06'2 1.4
2018-Apr-10 00:43N 29°46' W 095°05'1 3.0
2018-Apr-10 00:29N 29°46' W 095°05'3 6.3
2018-Apr-09 23:59N 29°44' W 095°08'4 0.1
2018-Apr-08 22:41N 29°44' W 095°12'2 4.9
2018-Apr-08 22:12N 29°44' W 095°09'2 5.2
2018-Apr-08 21:50N 29°44' W 095°07'2 5.5
2018-Apr-08 21:30N 29°45' W 095°06'2 3.8
2018-Apr-08 20:56N 29°44' W 095°03'2 5.1
2018-Apr-08 20:29N 29°43' W 095°01'2 5.0
2018-Apr-08 20:00N 29°41' W 094°59'3 6.0
2018-Apr-08 19:30N 29°39' W 094°58'3 6.0
2018-Apr-08 19:00N 29°36' W 094°57'3 6.2
2018-Apr-08 18:30N 29°33' W 094°55'3 6.4
2018-Apr-08 18:00N 29°31' W 094°53'  

Dump ship's entire track history